Time;durP1;ratioP1;P1;durP2;ratioP2;P2;SDS_P1;SDS_P2;PMS_P1;PMS_P2;Temp;Humidity;BMP_temperature;BMP_pressure;BME280_temperature;BME280_humidity;BME280_pressure;Samples;Min_cycle;Max_cycle;Signal;HPM_P1;HPM_P2
2022/07/20 00:00:37;;;;;;;9.32;4.35;;;27.50;42.70;;;;;;5017078;28;20033;-66
2022/07/20 00:03:09;;;;;;;7.75;3.75;;;27.50;42.60;;;;;;5015383;28;20451;-66
2022/07/20 00:05:35;;;;;;;8.38;3.75;;;27.40;42.70;;;;;;5016230;28;20084;-66
2022/07/20 00:08:01;;;;;;;7.38;3.80;;;27.40;42.70;;;;;;5016510;28;20168;-66
2022/07/20 00:13:13;;;;;;;8.73;4.05;;;27.40;43.00;;;;;;5016916;28;20152;-66
2022/07/20 00:15:40;;;;;;;7.35;3.55;;;27.30;43.10;;;;;;5016086;28;20021;-66
2022/07/20 00:18:06;;;;;;;8.60;3.97;;;27.30;43.10;;;;;;5016657;28;20359;-66
2022/07/20 00:20:31;;;;;;;7.18;3.40;;;27.20;43.00;;;;;;5012285;28;20026;-65
2022/07/20 00:22:58;;;;;;;9.75;3.63;;;27.20;43.10;;;;;;5014964;28;20033;-66
2022/07/20 00:25:24;;;;;;;7.30;3.50;;;27.20;43.20;;;;;;5016459;28;20053;-66
2022/07/20 00:27:50;;;;;;;7.75;3.58;;;27.20;43.00;;;;;;5015573;28;20026;-66
2022/07/20 00:30:16;;;;;;;7.82;3.55;;;27.10;43.00;;;;;;5016459;28;20045;-66
2022/07/20 00:32:42;;;;;;;8.10;3.83;;;27.10;43.00;;;;;;5015764;28;20105;-66
2022/07/20 00:35:11;;;;;;;7.55;3.65;;;27.10;43.20;;;;;;5015221;28;20435;-66
2022/07/20 00:37:36;;;;;;;9.38;4.32;;;27.10;43.20;;;;;;5013933;28;20363;-66
2022/07/20 00:40:05;;;;;;;7.75;3.78;;;27.00;43.10;;;;;;5016019;28;20026;-65
2022/07/20 00:42:31;;;;;;;6.53;3.47;;;27.00;43.20;;;;;;5016360;28;20358;-66
2022/07/20 00:44:56;;;;;;;11.00;3.90;;;27.00;43.20;;;;;;5016163;28;20026;-66
2022/07/20 00:47:22;;;;;;;6.45;3.67;;;27.00;43.30;;;;;;5015496;28;20092;-66
2022/07/20 00:49:48;;;;;;;9.02;3.88;;;27.00;43.40;;;;;;5016205;28;20046;-66
2022/07/20 00:52:13;;;;;;;8.65;4.13;;;26.90;44.10;;;;;;5015552;28;20030;-66
2022/07/20 00:54:39;;;;;;;9.15;4.07;;;26.90;43.60;;;;;;5016119;28;20033;-66
2022/07/20 00:57:05;;;;;;;8.00;3.75;;;26.90;43.60;;;;;;5016701;28;20021;-65
2022/07/20 00:59:31;;;;;;;15.90;4.20;;;26.90;43.70;;;;;;5015764;28;20036;-66
2022/07/20 01:01:57;;;;;;;10.68;3.92;;;26.80;43.70;;;;;;5015927;28;20521;-66
2022/07/20 01:04:23;;;;;;;7.13;3.70;;;26.80;43.70;;;;;;5014897;28;20030;-66
2022/07/20 01:06:49;;;;;;;7.43;3.75;;;26.80;43.80;;;;;;5015781;28;20041;-66
2022/07/20 01:09:18;;;;;;;10.48;4.00;;;26.80;43.90;;;;;;5015440;28;20045;-66
2022/07/20 01:11:44;;;;;;;7.47;4.00;;;26.70;43.70;;;;;;5015789;28;20160;-66
2022/07/20 01:14:10;;;;;;;9.00;3.72;;;26.70;43.70;;;;;;5014714;28;20074;-66
2022/07/20 01:16:37;;;;;;;7.90;4.00;;;26.70;43.70;;;;;;5017213;28;20426;-66
2022/07/20 01:19:04;;;;;;;8.10;3.75;;;26.70;43.80;;;;;;5015529;28;20113;-65
2022/07/20 01:21:30;;;;;;;7.65;4.05;;;26.70;43.90;;;;;;5015027;28;20391;-66
2022/07/20 01:23:56;;;;;;;7.82;4.18;;;26.60;43.90;;;;;;5014337;28;20038;-66
2022/07/20 01:26:22;;;;;;;7.55;3.40;;;26.60;43.90;;;;;;5013438;28;20109;-66
2022/07/20 01:28:47;;;;;;;8.18;3.83;;;26.60;43.90;;;;;;5015293;28;20034;-65
2022/07/20 01:31:13;;;;;;;7.97;3.72;;;26.60;43.90;;;;;;5015055;28;20053;-66
2022/07/20 01:33:39;;;;;;;8.23;3.90;;;26.50;44.00;;;;;;5015698;28;20046;-66
2022/07/20 01:36:05;;;;;;;6.13;3.45;;;26.40;43.90;;;;;;5014626;28;20058;-66
2022/07/20 01:38:31;;;;;;;7.93;3.92;;;26.40;44.00;;;;;;5016383;28;20076;-66
2022/07/20 01:40:56;;;;;;;9.93;3.97;;;26.40;44.10;;;;;;5015219;28;20034;-65
2022/07/20 01:43:22;;;;;;;7.47;3.53;;;26.40;44.20;;;;;;5015378;28;20042;-66
2022/07/20 01:45:48;;;;;;;6.07;3.28;;;26.40;44.30;;;;;;5014114;28;20058;-66
2022/07/20 01:48:13;;;;;;;7.82;3.67;;;26.30;44.30;;;;;;5014144;28;20032;-66
2022/07/20 01:50:40;;;;;;;9.05;4.15;;;26.30;44.40;;;;;;5014918;28;20036;-66
2022/07/20 01:53:07;;;;;;;7.07;3.92;;;26.30;44.40;;;;;;5016418;28;20037;-66
2022/07/20 01:55:32;;;;;;;6.85;4.00;;;26.30;44.30;;;;;;5017022;28;20090;-66
2022/07/20 01:57:59;;;;;;;7.75;4.10;;;26.30;44.40;;;;;;5015720;28;20363;-66
2022/07/20 02:00:24;;;;;;;6.45;3.65;;;26.20;44.30;;;;;;5014496;28;20069;-66
2022/07/20 02:02:50;;;;;;;8.93;3.58;;;26.20;44.40;;;;;;5015180;28;20076;-66
2022/07/20 02:05:17;;;;;;;7.25;3.58;;;26.20;44.50;;;;;;5013217;28;20424;-66
2022/07/20 02:07:43;;;;;;;7.18;3.60;;;26.20;44.60;;;;;;5014154;28;20079;-66
2022/07/20 02:10:10;;;;;;;6.85;3.70;;;26.10;44.60;;;;;;5014185;28;20037;-66
2022/07/20 02:12:37;;;;;;;9.13;3.80;;;26.10;44.60;;;;;;5014685;28;20034;-66
2022/07/20 02:15:04;;;;;;;7.93;4.05;;;26.10;44.70;;;;;;5012548;28;20509;-66
2022/07/20 02:17:30;;;;;;;7.43;4.05;;;26.10;44.80;;;;;;5014832;28;20471;-65
2022/07/20 02:19:55;;;;;;;8.75;3.95;;;26.00;44.80;;;;;;5012981;28;20026;-65
2022/07/20 02:22:21;;;;;;;9.27;3.85;;;26.00;45.00;;;;;;5014525;28;20022;-66
2022/07/20 02:24:47;;;;;;;7.05;4.03;;;26.00;45.00;;;;;;5015428;28;20033;-66
2022/07/20 02:27:13;;;;;;;7.88;3.88;;;26.00;45.10;;;;;;5014745;28;20447;-65
2022/07/20 02:29:38;;;;;;;8.18;4.00;;;25.90;45.10;;;;;;5014410;28;20123;-65
2022/07/20 02:32:04;;;;;;;7.47;3.28;;;25.90;45.20;;;;;;5014679;28;20029;-65
2022/07/20 02:34:30;;;;;;;8.35;4.22;;;25.90;45.30;;;;;;5014268;28;20036;-65
2022/07/20 02:36:55;;;;;;;11.02;4.30;;;25.90;45.40;;;;;;5010534;28;20022;-66
2022/07/20 02:39:21;;;;;;;7.00;3.90;;;25.90;45.60;;;;;;5013497;28;20098;-65
2022/07/20 02:41:47;;;;;;;7.38;3.83;;;25.80;45.50;;;;;;5013513;28;20041;-65
2022/07/20 02:44:13;;;;;;;7.90;4.30;;;25.80;45.60;;;;;;5014141;28;20122;-65
2022/07/20 02:46:39;;;;;;;9.02;3.95;;;25.80;45.70;;;;;;5014016;28;20030;-65
2022/07/20 02:49:06;;;;;;;8.75;4.10;;;25.80;45.70;;;;;;5014732;28;20053;-66
2022/07/20 02:51:32;;;;;;;7.72;3.97;;;25.80;45.80;;;;;;5003775;28;20392;-65
2022/07/20 02:53:57;;;;;;;8.80;4.40;;;25.70;45.80;;;;;;5013313;28;20057;-66
2022/07/20 02:56:23;;;;;;;8.50;4.47;;;25.70;45.70;;;;;;5014321;28;20113;-66
2022/07/20 02:58:49;;;;;;;7.57;4.15;;;25.70;45.70;;;;;;5028616;28;20034;-66
2022/07/20 03:01:14;;;;;;;6.93;3.65;;;25.70;45.80;;;;;;5025548;28;20029;-66
2022/07/20 03:03:40;;;;;;;8.95;3.70;;;25.60;45.60;;;;;;5014753;28;20030;-66
2022/07/20 03:06:06;;;;;;;7.93;4.55;;;25.60;45.60;;;;;;5013062;28;20107;-66
2022/07/20 03:08:32;;;;;;;8.57;4.18;;;25.60;45.60;;;;;;5011116;28;20444;-65
2022/07/20 03:10:57;;;;;;;7.60;4.25;;;25.60;45.50;;;;;;5016820;28;20018;-65
2022/07/20 03:13:23;;;;;;;7.80;3.80;;;25.60;45.60;;;;;;5017275;28;20042;-65
2022/07/20 03:15:48;;;;;;;7.53;3.72;;;25.60;45.70;;;;;;5018190;28;20034;-65
2022/07/20 03:18:14;;;;;;;8.60;4.25;;;25.60;45.80;;;;;;5018310;28;20114;-65
2022/07/20 03:20:40;;;;;;;9.18;4.15;;;25.50;45.90;;;;;;5020347;28;20367;-66
2022/07/20 03:23:06;;;;;;;6.13;3.75;;;25.50;46.00;;;;;;5007975;28;20026;-65
2022/07/20 03:25:32;;;;;;;8.90;3.85;;;25.40;46.00;;;;;;5016229;28;20041;-65
2022/07/20 03:27:58;;;;;;;6.40;3.42;;;25.40;46.20;;;;;;5017892;28;20026;-65
2022/07/20 03:30:25;;;;;;;6.70;3.83;;;25.40;46.40;;;;;;5017144;28;20092;-65
2022/07/20 03:32:51;;;;;;;8.32;4.13;;;25.40;46.50;;;;;;5016592;28;20053;-65
2022/07/20 03:35:17;;;;;;;6.93;3.90;;;25.40;46.50;;;;;;5016129;28;20113;-65
2022/07/20 03:37:43;;;;;;;7.25;4.03;;;25.30;46.60;;;;;;5018056;28;20037;-65
2022/07/20 03:40:09;;;;;;;7.80;3.65;;;25.30;46.70;;;;;;5017483;28;20025;-65
2022/07/20 03:42:35;;;;;;;8.18;4.30;;;25.30;46.90;;;;;;5015705;28;20030;-65
2022/07/20 03:45:02;;;;;;;7.25;4.10;;;25.30;47.00;;;;;;5016765;28;20423;-66
2022/07/20 03:47:28;;;;;;;7.28;3.97;;;25.30;47.00;;;;;;5016457;28;20034;-65
2022/07/20 03:49:53;;;;;;;8.18;3.78;;;25.30;47.00;;;;;;5016021;28;20104;-65
2022/07/20 03:52:20;;;;;;;6.53;3.70;;;25.30;47.00;;;;;;5017633;28;20037;-65
2022/07/20 03:54:45;;;;;;;7.55;3.95;;;25.30;47.50;;;;;;5017357;28;20022;-65
2022/07/20 03:57:11;;;;;;;7.90;4.43;;;25.30;46.90;;;;;;5018017;28;20113;-66
2022/07/20 03:59:37;;;;;;;8.35;4.05;;;25.30;46.90;;;;;;5016175;28;20113;-66
2022/07/20 04:02:04;;;;;;;9.65;4.47;;;25.30;46.80;;;;;;5018791;28;20399;-65
2022/07/20 04:04:30;;;;;;;6.80;4.30;;;25.30;46.70;;;;;;5004433;28;20037;-66
2022/07/20 04:06:56;;;;;;;9.60;4.60;;;25.40;46.80;;;;;;5015295;28;20038;-66
2022/07/20 04:12:09;;;;;;;8.55;4.43;;;25.40;46.80;;;;;;5014635;28;20450;-66
2022/07/20 04:14:35;;;;;;;8.23;4.30;;;25.40;46.70;;;;;;5015360;28;20121;-66
2022/07/20 04:17:01;;;;;;;9.50;4.90;;;25.40;46.60;;;;;;5016169;28;20146;-66
2022/07/20 04:19:27;;;;;;;9.50;4.72;;;25.40;47.20;;;;;;5017661;28;20021;-66
2022/07/20 04:21:57;;;;;;;8.90;4.75;;;25.40;46.60;;;;;;5016762;28;20026;-65
2022/07/20 04:24:23;;;;;;;9.20;4.97;;;25.40;46.60;;;;;;5016422;28;20092;-66
2022/07/20 04:26:48;;;;;;;9.00;5.00;;;25.50;46.80;;;;;;5016458;28;20099;-65
2022/07/20 04:29:14;;;;;;;9.20;5.32;;;25.40;46.80;;;;;;5016223;28;20522;-65
2022/07/20 04:31:39;;;;;;;12.02;6.35;;;25.40;47.00;;;;;;5015548;28;20349;-65
2022/07/20 04:34:05;;;;;;;9.32;5.82;;;25.50;47.10;;;;;;5016462;28;20371;-64
2022/07/20 04:36:31;;;;;;;12.48;5.97;;;25.50;47.30;;;;;;5022603;28;20022;-65
2022/07/20 04:38:56;;;;;;;11.63;7.28;;;25.50;47.40;;;;;;5017134;28;20029;-65
2022/07/20 04:41:22;;;;;;;13.27;7.50;;;25.50;47.50;;;;;;5015707;28;20030;-65
2022/07/20 04:43:48;;;;;;;13.10;7.60;;;25.50;47.70;;;;;;5016916;28;20026;-65
2022/07/20 04:46:13;;;;;;;13.32;7.47;;;25.60;47.90;;;;;;5015334;28;20109;-65
2022/07/20 04:48:39;;;;;;;11.20;7.20;;;25.60;48.20;;;;;;5016584;28;20030;-66
2022/07/20 04:51:04;;;;;;;12.07;7.00;;;25.60;48.50;;;;;;5016041;28;20036;-65
2022/07/20 04:53:30;;;;;;;11.55;8.10;;;25.60;48.70;;;;;;5017419;28;20113;-67
2022/07/20 04:55:56;;;;;;;11.75;8.18;;;25.60;49.10;;;;;;5015747;28;20394;-65
2022/07/20 04:58:21;;;;;;;12.90;8.90;;;25.60;49.50;;;;;;5017035;28;20042;-66
2022/07/20 05:00:47;;;;;;;17.00;10.20;;;25.60;49.80;;;;;;5015297;28;20053;-64
2022/07/20 05:03:12;;;;;;;12.27;9.25;;;25.60;50.40;;;;;;5015611;28;20089;-66
2022/07/20 05:05:38;;;;;;;17.02;11.10;;;25.60;50.80;;;;;;5014522;28;20371;-66
2022/07/20 05:08:04;;;;;;;18.85;12.07;;;25.60;51.30;;;;;;5014262;28;20022;-66
2022/07/20 05:10:30;;;;;;;19.75;11.75;;;25.60;52.40;;;;;;5014094;28;20410;-65
2022/07/20 05:12:55;;;;;;;18.10;12.63;;;25.60;52.20;;;;;;5015189;28;20050;-64
2022/07/20 05:15:23;;;;;;;17.67;12.60;;;25.60;52.60;;;;;;5016433;28;20026;-65
2022/07/20 05:17:52;;;;;;;17.50;13.65;;;25.70;53.00;;;;;;5016152;28;20037;-65
2022/07/20 05:20:18;;;;;;;18.25;13.70;;;25.70;53.40;;;;;;5015279;28;20035;-65
2022/07/20 05:22:44;;;;;;;18.83;15.35;;;25.80;53.70;;;;;;5017252;28;20049;-65
2022/07/20 05:25:11;;;;;;;24.17;15.93;;;25.80;53.90;;;;;;5016090;28;20033;-65
2022/07/20 05:27:37;;;;;;;20.33;15.77;;;25.90;54.20;;;;;;5013769;28;20058;-66
2022/07/20 05:30:04;;;;;;;20.80;15.90;;;26.00;54.40;;;;;;5018145;28;20517;-66
2022/07/20 05:32:29;;;;;;;22.20;17.08;;;26.00;55.20;;;;;;5011115;28;20478;-66
2022/07/20 05:34:55;;;;;;;23.80;17.98;;;26.10;55.30;;;;;;5010099;28;20033;-66
2022/07/20 05:37:21;;;;;;;25.85;17.67;;;26.10;54.90;;;;;;5009984;28;20026;-66
2022/07/20 05:39:47;;;;;;;23.73;18.40;;;26.20;55.10;;;;;;5011139;28;20045;-67
2022/07/20 05:42:13;;;;;;;26.70;20.25;;;26.20;55.30;;;;;;5013011;28;20451;-66
2022/07/20 05:44:39;;;;;;;25.40;19.90;;;26.30;55.40;;;;;;5013622;28;20033;-66
2022/07/20 05:47:06;;;;;;;26.98;20.55;;;26.30;55.50;;;;;;5013989;28;20044;-66
2022/07/20 05:49:33;;;;;;;26.40;20.67;;;26.40;55.60;;;;;;5011279;28;20165;-66
2022/07/20 05:51:59;;;;;;;29.13;21.98;;;26.40;55.60;;;;;;5012262;28;20030;-67
2022/07/20 05:54:25;;;;;;;27.75;22.98;;;26.50;55.80;;;;;;5012748;28;20041;-67
2022/07/20 05:56:50;;;;;;;29.45;22.38;;;26.60;55.80;;;;;;5013641;28;20026;-67
2022/07/20 05:59:16;;;;;;;28.23;21.58;;;26.70;56.00;;;;;;5013099;28;20359;-67
2022/07/20 06:01:44;;;;;;;32.40;22.60;;;26.70;56.00;;;;;;5023978;28;20033;-68
2022/07/20 06:04:11;;;;;;;29.80;22.67;;;26.70;56.00;;;;;;5009965;28;20030;-68
2022/07/20 06:06:37;;;;;;;28.08;22.30;;;26.80;56.10;;;;;;5013215;28;20109;-67
2022/07/20 06:09:04;;;;;;;28.67;23.60;;;26.80;56.10;;;;;;5012320;28;20061;-67
2022/07/20 06:11:30;;;;;;;30.48;23.98;;;26.90;56.20;;;;;;5008661;28;20022;-66
2022/07/20 06:13:56;;;;;;;29.88;24.58;;;26.90;56.30;;;;;;5009147;28;20048;-65
2022/07/20 06:16:21;;;;;;;26.15;22.25;;;26.90;56.30;;;;;;5006482;28;20057;-65
2022/07/20 06:18:47;;;;;;;28.52;23.08;;;27.00;56.50;;;;;;5012748;28;20076;-65
2022/07/20 06:21:14;;;;;;;29.33;22.80;;;27.00;56.50;;;;;;5013065;28;20079;-64
2022/07/20 06:23:40;;;;;;;28.88;24.20;;;27.10;56.50;;;;;;5013195;28;20044;-64
2022/07/20 06:26:06;;;;;;;28.67;23.02;;;27.20;56.60;;;;;;5013416;28;20413;-64
2022/07/20 06:28:31;;;;;;;27.70;23.13;;;27.30;56.60;;;;;;5012411;28;20038;-65
2022/07/20 06:30:57;;;;;;;29.33;24.38;;;27.40;56.60;;;;;;5013423;28;20096;-64
2022/07/20 06:33:22;;;;;;;29.92;23.88;;;27.40;56.50;;;;;;5011397;28;20095;-65
2022/07/20 06:35:48;;;;;;;30.55;25.15;;;27.50;56.60;;;;;;5026424;28;20058;-65
2022/07/20 06:38:14;;;;;;;30.48;25.05;;;27.60;56.50;;;;;;5013253;28;20041;-65
2022/07/20 06:40:39;;;;;;;30.13;24.33;;;27.70;56.50;;;;;;5013523;28;20033;-65
2022/07/20 06:43:05;;;;;;;31.27;25.00;;;27.80;56.40;;;;;;5012040;28;20357;-65
2022/07/20 06:45:30;;;;;;;28.42;25.10;;;27.90;56.30;;;;;;5013711;28;20052;-65
2022/07/20 06:47:56;;;;;;;27.45;24.25;;;28.00;56.20;;;;;;5012954;28;20112;-64
2022/07/20 06:50:22;;;;;;;31.38;23.48;;;28.10;56.00;;;;;;5021237;28;20040;-64
2022/07/20 06:52:47;;;;;;;28.63;22.77;;;28.20;55.90;;;;;;5012204;28;20022;-65
2022/07/20 06:55:13;;;;;;;29.65;23.35;;;28.30;55.90;;;;;;5012898;28;20115;-66
2022/07/20 06:57:39;;;;;;;28.00;23.48;;;28.40;55.70;;;;;;5011930;28;20371;-67
2022/07/20 07:00:08;;;;;;;25.85;23.17;;;28.40;55.40;;;;;;5013449;28;20029;-66
2022/07/20 07:02:34;;;;;;;27.77;22.55;;;28.50;55.20;;;;;;5011504;28;20041;-65
2022/07/20 07:04:59;;;;;;;25.33;21.20;;;28.50;54.80;;;;;;5013268;28;20030;-65
2022/07/20 07:07:25;;;;;;;26.05;21.23;;;28.50;54.50;;;;;;5013249;28;20030;-65
2022/07/20 07:09:51;;;;;;;27.08;21.73;;;28.50;54.50;;;;;;5012373;28;20022;-66
2022/07/20 07:12:16;;;;;;;25.58;20.15;;;28.60;54.30;;;;;;5011308;28;20339;-64
2022/07/20 07:14:42;;;;;;;23.50;18.83;;;28.60;53.90;;;;;;5012213;28;20038;-64
2022/07/20 07:17:07;;;;;;;22.38;18.40;;;28.60;53.70;;;;;;5013332;28;20359;-65
2022/07/20 07:19:33;;;;;;;25.00;18.65;;;28.80;53.60;;;;;;5011787;28;20041;-65
2022/07/20 07:21:59;;;;;;;21.95;18.65;;;28.90;53.30;;;;;;5009505;28;20398;-65
2022/07/20 07:24:25;;;;;;;26.92;18.63;;;29.10;53.00;;;;;;5011413;28;20060;-65
2022/07/20 07:26:50;;;;;;;25.30;18.17;;;29.20;52.70;;;;;;5014298;28;20072;-65
2022/07/20 07:29:16;;;;;;;25.08;17.70;;;29.30;52.20;;;;;;5013335;28;20062;-64
2022/07/20 07:31:42;;;;;;;21.17;16.42;;;29.20;52.20;;;;;;5013688;28;20030;-64
2022/07/20 07:34:08;;;;;;;20.23;16.90;;;29.00;52.30;;;;;;5015670;28;20030;-65
2022/07/20 07:36:33;;;;;;;19.83;16.17;;;29.00;52.40;;;;;;5013180;28;20026;-64
2022/07/20 07:38:59;;;;;;;20.80;15.23;;;29.20;52.20;;;;;;5013742;28;20102;-65
2022/07/20 07:41:25;;;;;;;20.10;15.38;;;29.40;51.90;;;;;;5013483;28;20030;-65
2022/07/20 07:43:50;;;;;;;17.70;15.07;;;29.40;51.50;;;;;;5013317;28;20029;-65
2022/07/20 07:46:16;;;;;;;18.90;15.50;;;29.50;51.40;;;;;;5013016;28;20359;-65
2022/07/20 07:48:42;;;;;;;19.67;15.27;;;29.60;51.00;;;;;;5012662;28;20036;-68
2022/07/20 07:51:07;;;;;;;21.20;14.90;;;29.60;50.90;;;;;;5012328;28;20045;-67
2022/07/20 07:53:33;;;;;;;19.08;14.60;;;29.50;51.10;;;;;;5003687;28;20049;-66
2022/07/20 07:55:58;;;;;;;19.67;13.85;;;29.50;50.90;;;;;;5012750;28;20030;-65
2022/07/20 07:58:24;;;;;;;19.40;14.05;;;29.60;50.60;;;;;;5013616;28;20030;-66
2022/07/20 08:00:50;;;;;;;20.48;14.23;;;29.80;50.40;;;;;;5013553;28;20064;-67
2022/07/20 08:03:16;;;;;;;20.42;14.80;;;29.90;50.00;;;;;;5013486;28;20025;-67
2022/07/20 08:05:41;;;;;;;17.90;13.25;;;30.10;49.70;;;;;;5015673;28;20495;-67
2022/07/20 08:08:10;;;;;;;19.13;12.98;;;30.20;49.40;;;;;;5016414;28;20022;-67
2022/07/20 08:10:36;;;;;;;17.02;12.30;;;30.30;49.30;;;;;;5017545;28;20037;-67
2022/07/20 08:13:03;;;;;;;17.60;11.90;;;30.30;49.20;;;;;;5017027;28;20341;-67
2022/07/20 08:15:29;;;;;;;17.45;12.32;;;30.40;49.10;;;;;;5017620;28;20025;-67
2022/07/20 08:17:54;;;;;;;15.68;11.77;;;30.50;48.90;;;;;;5017689;28;20078;-67
2022/07/20 08:20:22;;;;;;;17.98;11.65;;;30.50;48.60;;;;;;5017170;28;20420;-67
2022/07/20 08:22:48;;;;;;;17.15;11.80;;;30.60;48.40;;;;;;5017135;28;20025;-67
2022/07/20 08:25:14;;;;;;;15.95;11.80;;;30.70;48.10;;;;;;5017219;28;20030;-66
2022/07/20 08:27:40;;;;;;;15.60;11.85;;;30.70;47.90;;;;;;5017225;28;20367;-66
2022/07/20 08:30:06;;;;;;;16.15;11.38;;;30.70;47.40;;;;;;5016583;28;20037;-66
2022/07/20 08:32:32;;;;;;;17.95;10.63;;;30.70;47.30;;;;;;5017009;28;20021;-66
2022/07/20 08:34:57;;;;;;;18.40;10.93;;;30.70;46.90;;;;;;5016114;28;20435;-66
2022/07/20 08:37:23;;;;;;;15.60;10.50;;;30.70;46.70;;;;;;5017298;28;20355;-67
2022/07/20 08:39:49;;;;;;;19.90;11.27;;;30.60;46.60;;;;;;5016319;28;20420;-66
2022/07/20 08:42:15;;;;;;;15.80;11.32;;;30.70;46.30;;;;;;5017505;28;20108;-66
2022/07/20 08:44:42;;;;;;;15.52;11.88;;;30.60;46.30;;;;;;5016902;28;20036;-66
2022/07/20 08:47:11;;;;;;;18.77;10.70;;;30.50;46.40;;;;;;5012898;28;20038;-68
2022/07/20 08:49:38;;;;;;;15.15;11.20;;;30.20;46.70;;;;;;5014284;28;20054;-66
2022/07/20 08:52:04;;;;;;;14.05;10.68;;;30.20;47.00;;;;;;5014023;28;20018;-66
2022/07/20 08:54:32;;;;;;;17.50;10.45;;;30.10;47.10;;;;;;5010563;28;20611;-66
2022/07/20 08:56:57;;;;;;;14.13;10.38;;;30.20;47.10;;;;;;5014608;28;20142;-67
2022/07/20 08:59:23;;;;;;;15.23;11.13;;;30.50;47.10;;;;;;5009545;28;20117;-67
2022/07/20 09:02:03;;;;;;;15.10;9.48;;;30.80;47.00;;;;;;5009269;28;20072;-68
2022/07/20 09:04:29;;;;;;;12.77;9.30;;;31.00;46.40;;;;;;5008844;28;20036;-69
2022/07/20 09:06:55;;;;;;;12.38;9.25;;;31.20;46.30;;;;;;4996915;28;20030;-69
2022/07/20 09:09:21;;;;;;;13.57;8.60;;;31.40;46.10;;;;;;5012058;28;20042;-68
2022/07/20 09:11:49;;;;;;;13.38;9.70;;;31.60;45.90;;;;;;5018173;28;20022;-68
2022/07/20 09:14:47;;;;;;;13.18;9.35;;;31.70;45.60;;;;;;5010845;28;20064;-69
2022/07/20 09:17:22;;;;;;;14.68;8.45;;;31.90;45.40;;;;;;5008967;28;20021;-66
2022/07/20 09:20:08;;;;;;;17.20;8.23;;;32.00;45.30;;;;;;5006666;28;20026;-66
2022/07/20 09:22:38;;;;;;;14.23;8.40;;;32.00;45.00;;;;;;5010844;28;20367;-67
2022/07/20 09:25:09;;;;;;;13.65;8.40;;;32.10;45.10;;;;;;5009982;28;20033;-67
2022/07/20 09:27:35;;;;;;;11.73;8.05;;;32.20;44.80;;;;;;5009240;28;20033;-67
2022/07/20 09:30:12;;;;;;;14.40;7.97;;;32.10;44.90;;;;;;5007514;28;20124;-66
2022/07/20 09:32:58;;;;;;;13.43;7.93;;;32.20;44.80;;;;;;5022027;28;20039;-66
2022/07/20 09:35:30;;;;;;;14.48;8.13;;;32.30;44.50;;;;;;5007509;28;20435;-66
2022/07/20 09:37:57;;;;;;;10.27;7.30;;;32.40;44.40;;;;;;5006558;28;20038;-67
2022/07/20 09:40:23;;;;;;;11.60;7.53;;;32.50;44.10;;;;;;5009466;28;20033;-67
2022/07/20 09:42:49;;;;;;;13.68;8.10;;;32.60;44.20;;;;;;5022285;28;20037;-66
2022/07/20 09:45:28;;;;;;;11.15;6.88;;;32.60;43.50;;;;;;5008498;28;20033;-67
2022/07/20 09:48:12;;;;;;;12.35;7.53;;;32.70;43.20;;;;;;5014065;28;20417;-68
2022/07/20 09:50:41;;;;;;;14.48;7.78;;;32.90;43.00;;;;;;4996614;28;20035;-66
2022/07/20 09:53:09;;;;;;;13.10;7.50;;;32.90;42.90;;;;;;5007561;28;20022;-67
2022/07/20 09:55:37;;;;;;;11.32;7.55;;;32.90;42.80;;;;;;5007067;28;20030;-67
2022/07/20 09:58:03;;;;;;;11.07;7.55;;;33.00;42.60;;;;;;5007507;28;20017;-66
2022/07/20 10:00:29;;;;;;;12.18;7.32;;;32.90;42.20;;;;;;5010374;28;20041;-67
2022/07/20 10:02:57;;;;;;;9.00;6.65;;;32.70;42.30;;;;;;5005520;28;20083;-69
2022/07/20 10:05:23;;;;;;;13.60;7.30;;;32.60;42.50;;;;;;5009924;28;20058;-68
2022/07/20 10:07:50;;;;;;;12.45;7.25;;;32.50;42.30;;;;;;5006555;28;20490;-66
2022/07/20 10:10:16;;;;;;;11.98;7.35;;;32.60;42.30;;;;;;4999066;28;20037;-65
2022/07/20 10:12:42;;;;;;;11.30;7.28;;;32.60;42.20;;;;;;5008477;28;20413;-66
2022/07/20 10:15:16;;;;;;;11.40;7.70;;;32.70;42.20;;;;;;5012043;28;20113;-66
2022/07/20 10:17:43;;;;;;;10.95;7.18;;;32.80;42.00;;;;;;5008374;28;20109;-65
2022/07/20 10:20:30;;;;;;;10.50;6.75;;;32.80;41.80;;;;;;5008925;28;20030;-66
2022/07/20 10:23:14;;;;;;;10.40;7.38;;;32.80;41.70;;;;;;5008914;28;20099;-65
2022/07/20 10:25:43;;;;;;;10.20;6.85;;;32.90;41.70;;;;;;5009316;28;20066;-65
2022/07/20 10:28:28;;;;;;;9.68;6.57;;;33.00;41.60;;;;;;5007823;28;20030;-65
2022/07/20 10:30:56;;;;;;;12.68;7.32;;;33.20;41.60;;;;;;5007920;28;20163;-66
2022/07/20 10:33:23;;;;;;;10.18;6.53;;;33.20;41.50;;;;;;5009797;28;20160;-65
2022/07/20 10:35:50;;;;;;;10.18;6.53;;;33.30;41.50;;;;;;5005631;28;20030;-65
2022/07/20 10:38:19;;;;;;;12.70;7.57;;;33.30;41.50;;;;;;5009084;28;20026;-65
2022/07/20 10:44:21;;;;;;;10.23;6.88;;;33.50;41.50;;;;;;5009711;28;20065;-65
2022/07/20 10:46:49;;;;;;;10.68;6.72;;;33.60;41.50;;;;;;5012129;28;20026;-66
2022/07/20 10:49:16;;;;;;;9.05;6.78;;;33.70;41.40;;;;;;5007339;28;20030;-65
2022/07/20 10:51:43;;;;;;;10.25;7.30;;;33.60;41.50;;;;;;5020275;28;20057;-65
2022/07/20 10:54:47;;;;;;;10.60;7.07;;;33.60;41.50;;;;;;5008960;28;20026;-65
2022/07/20 10:57:13;;;;;;;9.65;7.05;;;33.70;41.50;;;;;;5004634;28;20117;-64
2022/07/20 10:59:38;;;;;;;11.75;7.18;;;33.60;41.40;;;;;;5006194;28;22283;-64
2022/07/20 11:02:04;;;;;;;9.75;7.45;;;33.50;41.60;;;;;;5000000;28;20038;-64
2022/07/20 11:04:29;;;;;;;11.05;6.75;;;33.40;41.70;;;;;;5006847;28;20034;-63
2022/07/20 11:06:55;;;;;;;10.20;7.13;;;33.40;41.70;;;;;;5006617;28;20121;-67
2022/07/20 11:09:31;;;;;;;11.35;7.10;;;33.40;41.60;;;;;;5003967;28;20273;-66
2022/07/20 11:11:56;;;;;;;10.93;7.25;;;33.40;41.40;;;;;;5004045;28;20087;-66
2022/07/20 11:14:22;;;;;;;9.75;6.80;;;33.40;41.40;;;;;;5000768;28;20045;-66
2022/07/20 11:16:54;;;;;;;11.63;6.55;;;33.40;41.40;;;;;;5002920;28;20045;-65
2022/07/20 11:19:20;;;;;;;14.43;6.72;;;33.30;41.40;;;;;;5003625;28;20037;-67
2022/07/20 11:21:46;;;;;;;10.52;6.05;;;33.20;41.60;;;;;;5006502;28;20487;-67
2022/07/20 11:24:26;;;;;;;9.32;6.32;;;33.00;41.60;;;;;;4987541;28;20038;-65
2022/07/20 11:26:53;;;;;;;10.02;6.18;;;32.90;41.40;;;;;;4980338;28;20049;-65
2022/07/20 11:29:18;;;;;;;9.38;5.72;;;33.00;41.50;;;;;;5006590;28;20446;-65
2022/07/20 11:31:44;;;;;;;10.43;6.18;;;33.20;41.20;;;;;;5015752;28;20034;-65
2022/07/20 11:34:13;;;;;;;12.25;6.00;;;33.40;40.90;;;;;;5011960;28;20018;-65
2022/07/20 11:36:39;;;;;;;8.57;5.50;;;33.40;40.60;;;;;;5013530;28;20037;-68
2022/07/20 11:39:07;;;;;;;9.45;5.53;;;33.50;40.40;;;;;;5013424;28;20030;-68
2022/07/20 11:41:36;;;;;;;10.18;5.63;;;33.60;40.40;;;;;;5011339;28;20030;-66
2022/07/20 11:44:03;;;;;;;9.23;5.63;;;33.70;40.20;;;;;;5015100;28;20056;-66
2022/07/20 11:46:43;;;;;;;8.30;5.15;;;33.80;40.10;;;;;;5015914;28;20664;-67
2022/07/20 11:49:14;;;;;;;9.60;5.40;;;33.90;40.00;;;;;;5013775;28;20033;-67
2022/07/20 11:51:50;;;;;;;9.55;5.70;;;33.90;39.90;;;;;;5016398;28;20057;-66
2022/07/20 11:54:20;;;;;;;8.45;5.25;;;33.70;39.90;;;;;;5016918;28;20026;-66
2022/07/20 11:56:47;;;;;;;9.85;5.28;;;33.40;40.20;;;;;;5017480;28;20320;-66
2022/07/20 11:59:14;;;;;;;13.20;5.82;;;33.30;40.40;;;;;;5014478;28;20034;-67
2022/07/20 12:01:40;;;;;;;9.52;5.10;;;33.20;40.30;;;;;;5014597;28;20026;-66
2022/07/20 12:04:10;;;;;;;7.85;4.85;;;33.10;40.40;;;;;;5010602;28;20033;-66
2022/07/20 12:06:40;;;;;;;8.57;5.00;;;33.10;40.40;;;;;;5012075;28;20101;-66
2022/07/20 12:09:06;;;;;;;;;;;33.20;40.20;;;;;;5011851;28;20026;-66
2022/07/20 12:11:33;;;;;;;8.38;4.70;;;33.30;40.30;;;;;;5011097;28;19940;-66
2022/07/20 12:13:58;;;;;;;8.60;5.32;;;33.30;40.20;;;;;;5010473;28;20082;-68
2022/07/20 12:16:24;;;;;;;9.40;5.43;;;33.30;40.10;;;;;;5009351;28;20061;-67
2022/07/20 12:18:52;;;;;;;11.45;5.85;;;33.10;40.10;;;;;;5008404;28;20033;-64
2022/07/20 12:21:27;;;;;;;10.27;5.20;;;33.10;40.00;;;;;;5007765;28;20066;-64
2022/07/20 12:23:54;;;;;;;9.25;5.30;;;33.00;39.90;;;;;;5021670;28;20491;-64
2022/07/20 12:26:25;;;;;;;8.73;4.78;;;33.00;40.00;;;;;;5007448;28;20034;-64
2022/07/20 12:28:51;;;;;;;;;;;33.00;40.20;;;;;;5008426;28;20076;-64
2022/07/20 12:31:19;;;;;;;7.22;4.60;;;33.10;40.30;;;;;;5007633;28;20250;-64
2022/07/20 12:34:13;;;;;;;11.13;4.80;;;33.10;40.20;;;;;;5004362;28;20033;-64
2022/07/20 12:36:49;;;;;;;7.63;4.85;;;33.10;40.20;;;;;;5002081;28;20113;-64
2022/07/20 12:39:36;;;;;;;8.73;4.97;;;33.00;40.30;;;;;;5005137;28;20124;-64
2022/07/20 12:42:22;;;;;;;8.13;4.47;;;33.10;40.00;;;;;;5008789;28;20036;-66
2022/07/20 12:44:56;;;;;;;10.00;5.10;;;32.90;40.00;;;;;;5007486;28;20281;-66
2022/07/20 12:47:22;;;;;;;9.13;5.35;;;32.80;40.00;;;;;;5012402;28;20034;-66